createdAt,value
2018-08-16T00:00:41.924Z,79.27
2018-08-16T00:03:15.278Z,76.40
2018-08-16T00:05:48.452Z,76.30
2018-08-16T00:08:21.713Z,75.10
2018-08-16T00:10:55.060Z,76.10
2018-08-16T00:13:28.276Z,75.33
2018-08-16T00:16:01.778Z,75.47
2018-08-16T00:18:35.205Z,75.90
2018-08-16T00:21:08.550Z,72.93
2018-08-16T00:23:42.606Z,74.97
2018-08-16T00:26:15.814Z,73.63
2018-08-16T00:28:49.293Z,73.60
2018-08-16T00:31:22.568Z,73.70
2018-08-16T00:33:57.024Z,74.37
2018-08-16T00:36:30.628Z,71.50
2018-08-16T00:39:04.298Z,72.07
2018-08-16T00:41:38.880Z,70.40
2018-08-16T00:44:12.904Z,73.27
2018-08-16T00:46:46.868Z,73.30
2018-08-16T00:49:22.380Z,72.87
2018-08-16T00:51:57.593Z,74.47
2018-08-16T00:54:31.575Z,75.77
2018-08-16T00:57:05.128Z,78.63
2018-08-16T00:59:38.104Z,74.73
2018-08-16T01:02:12.497Z,76.27
2018-08-16T01:04:46.025Z,72.83
2018-08-16T01:07:21.402Z,75.77
2018-08-16T01:09:54.925Z,76.53
2018-08-16T01:12:28.688Z,76.80
2018-08-16T01:15:02.130Z,75.20
2018-08-16T01:17:35.525Z,74.60
2018-08-16T01:20:09.100Z,75.20
2018-08-16T01:22:42.260Z,76.93
2018-08-16T01:25:19.247Z,78.60
2018-08-16T01:27:52.707Z,79.23
2018-08-16T01:30:26.127Z,74.47
2018-08-16T01:33:00.324Z,74.83
2018-08-16T01:35:34.001Z,79.07
2018-08-16T01:38:08.213Z,80.43
2018-08-16T01:40:42.922Z,75.90
2018-08-16T01:43:16.147Z,76.67
2018-08-16T01:45:50.427Z,76.27
2018-08-16T01:48:24.351Z,75.27
2018-08-16T01:50:57.716Z,72.07
2018-08-16T01:53:30.942Z,71.93
2018-08-16T01:56:05.313Z,71.87
2018-08-16T01:58:38.624Z,71.77
2018-08-16T02:01:11.996Z,69.37
2018-08-16T02:03:46.971Z,67.43
2018-08-16T02:06:22.878Z,64.53
2018-08-16T02:08:57.428Z,65.37
2018-08-16T02:11:30.707Z,63.20
2018-08-16T02:14:04.815Z,63.10
2018-08-16T02:16:38.480Z,60.40
2018-08-16T02:19:11.475Z,61.03
2018-08-16T02:21:45.342Z,63.30
2018-08-16T02:24:18.628Z,62.73
2018-08-16T02:26:53.641Z,61.00
2018-08-16T02:29:28.714Z,59.10
2018-08-16T02:32:01.809Z,57.37
2018-08-16T02:34:35.450Z,55.87
2018-08-16T02:37:09.191Z,56.73
2018-08-16T02:39:42.650Z,56.67
2018-08-16T02:42:15.875Z,56.73
2018-08-16T02:44:51.932Z,55.90
2018-08-16T02:47:26.834Z,54.07
2018-08-16T02:50:01.299Z,53.30
2018-08-16T02:52:36.200Z,54.40
2018-08-16T02:55:09.915Z,54.97
2018-08-16T02:57:43.819Z,54.37
2018-08-16T03:00:19.451Z,53.03
2018-08-16T03:02:52.584Z,53.03
2018-08-16T03:05:27.383Z,53.40
2018-08-16T03:08:00.661Z,53.53
2018-08-16T03:10:36.231Z,50.97
2018-08-16T03:13:10.923Z,50.10
2018-08-16T03:15:54.453Z,49.90
2018-08-16T03:18:31.454Z,50.90
2018-08-16T03:21:06.097Z,50.13
2018-08-16T03:23:41.552Z,48.50
2018-08-16T03:26:15.967Z,48.97
2018-08-16T03:28:49.318Z,47.77
2018-08-16T03:31:23.199Z,49.87
2018-08-16T03:33:56.825Z,48.73
2018-08-16T03:36:29.936Z,50.03
2018-08-16T03:39:03.499Z,48.33
2018-08-16T03:41:37.761Z,47.90
2018-08-16T03:44:10.990Z,45.93
2018-08-16T03:46:44.302Z,46.03
2018-08-16T03:49:19.619Z,46.30
2018-08-16T03:51:54.062Z,46.57
2018-08-16T03:54:29.289Z,46.97
2018-08-16T03:57:03.331Z,46.47
2018-08-16T03:59:37.222Z,46.47
2018-08-16T04:02:10.627Z,46.77
2018-08-16T04:04:43.965Z,47.07
2018-08-16T04:07:18.617Z,44.47
2018-08-16T04:09:52.626Z,46.60
2018-08-16T04:12:30.091Z,43.53
2018-08-16T04:15:03.691Z,45.20
2018-08-16T04:17:49.819Z,45.20
2018-08-16T04:20:31.920Z,44.27
2018-08-16T04:23:12.381Z,45.33
2018-08-16T04:25:50.284Z,43.27
2018-08-16T04:28:32.790Z,42.80
2018-08-16T04:31:17.166Z,42.20
2018-08-16T04:33:58.654Z,42.77
2018-08-16T04:36:45.556Z,43.77
2018-08-16T04:39:28.043Z,42.93
2018-08-16T04:42:11.002Z,42.60
2018-08-16T04:44:53.484Z,41.93
2018-08-16T04:47:36.416Z,41.37
2018-08-16T04:50:20.451Z,43.10
2018-08-16T04:53:03.499Z,41.87
2018-08-16T04:55:47.120Z,42.00
2018-08-16T04:58:26.351Z,43.30
2018-08-16T05:01:07.007Z,44.97
2018-08-16T05:03:49.011Z,44.13
2018-08-16T05:06:29.277Z,42.00
2018-08-16T05:09:14.099Z,42.57
2018-08-16T05:14:51.623Z,42.37
2018-08-16T05:20:30.927Z,41.97
2018-08-16T05:23:15.839Z,41.60
2018-08-16T05:25:59.777Z,41.03
2018-08-16T05:28:45.065Z,42.50
2018-08-16T05:34:20.579Z,41.57
2018-08-16T05:37:04.623Z,41.00
2018-08-16T05:39:49.500Z,41.67
2018-08-16T05:45:23.442Z,43.53
2018-08-16T05:51:04.831Z,42.80
2018-08-16T05:53:51.930Z,42.23
2018-08-16T05:59:15.223Z,42.20
2018-08-16T06:01:55.791Z,43.27
2018-08-16T06:04:44.377Z,44.90
2018-08-16T06:07:33.781Z,44.23
2018-08-16T06:10:20.075Z,44.43
2018-08-16T06:12:56.530Z,44.30
2018-08-16T06:15:32.382Z,45.53
2018-08-16T06:18:21.382Z,44.40
2018-08-16T06:20:57.774Z,44.30
2018-08-16T06:23:38.404Z,44.97
2018-08-16T06:26:29.789Z,41.73
2018-08-16T06:29:03.639Z,44.27
2018-08-16T06:31:36.875Z,41.63
2018-08-16T06:34:10.299Z,42.70
2018-08-16T06:36:43.848Z,42.43
2018-08-16T06:39:17.134Z,43.20
2018-08-16T06:41:50.500Z,41.33
2018-08-16T06:44:23.832Z,44.13
2018-08-16T06:46:57.204Z,43.00
2018-08-16T06:49:31.702Z,40.43
2018-08-16T06:52:05.035Z,45.17
2018-08-16T06:54:40.303Z,44.67
2018-08-16T06:57:14.017Z,42.50
2018-08-16T06:59:47.691Z,41.40
2018-08-16T07:02:21.880Z,40.67
2018-08-16T07:04:55.936Z,41.90
2018-08-16T07:07:29.525Z,40.60
2018-08-16T07:10:02.790Z,41.63
2018-08-16T07:12:36.653Z,40.37
2018-08-16T07:15:13.208Z,41.83
2018-08-16T07:17:47.231Z,42.00
2018-08-16T07:20:21.282Z,42.50
2018-08-16T07:22:56.780Z,42.27
2018-08-16T07:25:29.972Z,41.23
2018-08-16T07:28:03.554Z,42.00
2018-08-16T07:30:37.058Z,41.43
2018-08-16T07:33:10.480Z,41.97
2018-08-16T07:35:43.754Z,41.03
2018-08-16T07:38:17.097Z,42.47
2018-08-16T07:40:51.373Z,42.10
2018-08-16T07:43:24.636Z,42.33
2018-08-16T15:47:46.376Z,24.00
2018-08-16T15:50:19.647Z,23.67
2018-08-16T15:52:53.427Z,22.87
2018-08-16T15:55:27.882Z,23.57
2018-08-16T15:58:02.321Z,23.40
2018-08-16T16:00:38.965Z,24.30
2018-08-16T16:03:13.878Z,24.13
2018-08-16T16:05:47.525Z,22.50
2018-08-16T16:08:21.912Z,22.30
2018-08-16T16:10:55.122Z,23.07
2018-08-16T16:13:29.148Z,26.07
2018-08-16T16:16:03.606Z,25.30
2018-08-16T16:18:36.855Z,23.93
2018-08-16T16:21:10.260Z,23.50
2018-08-16T16:23:44.826Z,24.83
2018-08-16T16:26:20.218Z,26.33
2018-08-16T16:28:53.893Z,26.30
2018-08-16T16:31:27.059Z,24.07
2018-08-16T16:34:00.365Z,24.13
2018-08-16T16:36:33.979Z,23.80
2018-08-16T16:39:09.431Z,23.23
2018-08-16T16:41:43.081Z,25.20
2018-08-16T16:44:16.538Z,26.57
2018-08-16T16:46:49.895Z,26.27
2018-08-16T16:49:25.890Z,26.70
2018-08-16T16:51:59.186Z,25.10
2018-08-16T16:54:32.150Z,25.80
2018-08-16T16:57:06.356Z,26.83
2018-08-16T16:59:41.030Z,26.07
2018-08-16T17:02:14.670Z,27.93
2018-08-16T17:04:48.105Z,28.63
2018-08-16T17:07:21.532Z,28.83
2018-08-16T17:09:55.309Z,27.43
2018-08-16T17:12:29.684Z,30.53
2018-08-16T17:15:03.577Z,28.57
2018-08-16T17:17:39.311Z,30.97
2018-08-16T17:20:13.415Z,31.00
2018-08-16T17:22:47.097Z,30.83
2018-08-16T17:25:20.955Z,30.70
2018-08-16T17:27:54.145Z,29.30
2018-08-16T17:30:32.031Z,29.67
2018-08-16T17:33:05.522Z,31.27
2018-08-16T17:35:40.524Z,30.20
2018-08-16T17:38:14.221Z,30.07
2018-08-16T17:40:47.728Z,31.40
2018-08-16T17:43:21.236Z,31.20
2018-08-16T17:45:56.253Z,29.10
2018-08-16T17:48:30.526Z,29.90
2018-08-16T17:51:04.923Z,30.47
2018-08-16T17:53:39.760Z,30.73
2018-08-16T17:56:12.777Z,31.03
2018-08-16T17:58:47.638Z,31.90
2018-08-16T18:01:21.472Z,31.20
2018-08-16T18:03:56.819Z,33.17
2018-08-16T18:06:32.333Z,34.33
2018-08-16T18:09:06.831Z,33.17
2018-08-16T18:11:41.309Z,32.80
2018-08-16T18:14:16.611Z,31.97
2018-08-16T18:16:50.013Z,33.83
2018-08-16T18:19:23.435Z,34.93
2018-08-16T18:21:56.806Z,35.00
2018-08-16T18:24:30.174Z,34.03
2018-08-16T18:27:04.631Z,34.93
2018-08-16T18:29:38.586Z,36.03
2018-08-16T18:32:14.884Z,35.37
2018-08-16T18:34:48.532Z,34.07
2018-08-16T18:37:21.944Z,33.90
2018-08-16T18:39:55.126Z,33.00
2018-08-16T18:42:28.598Z,35.23
2018-08-16T18:45:03.144Z,36.53
2018-08-16T18:47:36.629Z,35.37
2018-08-16T18:50:10.168Z,35.43
2018-08-16T18:52:43.580Z,37.13
2018-08-16T18:55:17.912Z,35.40
2018-08-16T18:57:51.345Z,34.27
2018-08-16T19:00:26.988Z,33.63
2018-08-16T19:03:00.339Z,32.93
2018-08-16T19:05:34.008Z,32.00
2018-08-16T19:08:09.469Z,31.73
2018-08-16T19:10:45.105Z,31.40
2018-08-16T19:13:22.076Z,32.80
2018-08-16T19:15:55.172Z,32.67
2018-08-16T19:18:28.597Z,31.00
2018-08-16T19:21:03.156Z,30.80
2018-08-16T19:23:37.871Z,31.37
2018-08-16T19:26:12.688Z,29.10
2018-08-16T19:28:46.275Z,27.03
2018-08-16T19:31:19.854Z,29.80
2018-08-16T19:33:54.038Z,29.27
2018-08-16T19:36:28.316Z,29.03
2018-08-16T19:39:02.482Z,27.37
2018-08-16T19:41:36.893Z,26.77
2018-08-16T19:44:10.403Z,27.07
2018-08-16T19:46:45.814Z,27.83
2018-08-16T19:49:21.007Z,25.33
2018-08-16T19:51:54.476Z,27.33
2018-08-16T19:54:28.038Z,24.73
2018-08-16T19:57:01.927Z,25.70
2018-08-16T19:59:35.498Z,26.87
2018-08-16T20:02:09.492Z,24.33
2018-08-16T20:04:45.135Z,23.77
2018-08-16T20:07:18.989Z,24.70
2018-08-16T20:09:52.328Z,25.43
2018-08-16T20:12:25.490Z,26.70
2018-08-16T20:14:59.248Z,26.03
2018-08-16T20:17:32.766Z,24.50
2018-08-16T20:20:06.218Z,24.63
2018-08-16T20:22:39.889Z,24.83
2018-08-16T20:25:14.083Z,27.13
2018-08-16T20:27:47.713Z,25.57
2018-08-16T20:30:27.001Z,25.67
2018-08-16T20:33:00.802Z,23.23
2018-08-16T20:35:34.538Z,24.23
2018-08-16T20:38:08.867Z,25.43
2018-08-16T20:40:42.250Z,27.00
2018-08-16T20:43:15.760Z,25.33
2018-08-16T20:45:48.806Z,25.20
2018-08-16T20:48:23.013Z,25.93
2018-08-16T20:50:56.869Z,23.70
2018-08-16T20:53:30.391Z,24.50
2018-08-16T20:56:03.994Z,25.77
2018-08-16T20:58:40.852Z,25.47
2018-08-16T21:02:19.198Z,26.30
2018-08-16T21:04:53.434Z,25.60
2018-08-16T21:07:26.887Z,27.43
2018-08-16T21:10:01.586Z,26.50
2018-08-16T21:12:35.322Z,25.87
2018-08-16T21:15:10.072Z,26.37
2018-08-16T21:17:43.487Z,28.03
2018-08-16T21:20:18.164Z,27.27
2018-08-16T21:22:53.936Z,27.53
2018-08-16T21:25:28.068Z,27.23
2018-08-16T21:28:01.284Z,25.70
2018-08-16T21:30:36.808Z,26.33
2018-08-16T21:33:11.087Z,27.37
2018-08-16T21:35:47.680Z,27.10
2018-08-16T21:38:22.465Z,25.70
2018-08-16T21:40:57.958Z,25.70
2018-08-16T21:43:32.396Z,27.97
2018-08-16T21:46:05.893Z,27.50
2018-08-16T21:48:39.873Z,27.23
2018-08-16T21:51:15.926Z,27.67
2018-08-16T21:53:52.335Z,28.60
2018-08-16T21:56:26.424Z,26.27
2018-08-16T21:59:00.040Z,26.67
2018-08-16T22:01:34.961Z,28.87
2018-08-16T22:04:08.176Z,27.63
2018-08-16T22:06:51.488Z,28.30
2018-08-16T22:09:27.800Z,26.87
2018-08-16T22:12:02.409Z,28.10
2018-08-16T22:14:35.812Z,27.80
2018-08-16T22:17:09.443Z,28.73
2018-08-16T22:19:43.768Z,28.00
2018-08-16T22:22:17.220Z,27.40
2018-08-16T22:24:52.180Z,28.13
2018-08-16T22:27:25.952Z,27.00
2018-08-16T22:29:59.566Z,27.10
2018-08-16T22:32:33.205Z,27.57
2018-08-16T22:35:08.290Z,27.67
2018-08-16T22:37:41.810Z,27.03
2018-08-16T22:40:15.419Z,27.27
2018-08-16T22:42:49.171Z,27.90
2018-08-16T22:45:22.579Z,26.20
2018-08-16T22:47:55.925Z,26.07
2018-08-16T22:50:29.703Z,25.93
2018-08-16T22:53:04.255Z,25.47
2018-08-16T22:55:37.684Z,25.87
2018-08-16T22:58:11.293Z,24.67
2018-08-16T23:00:44.665Z,25.00
2018-08-16T23:03:18.300Z,25.37
2018-08-16T23:05:51.697Z,24.30
2018-08-16T23:08:27.093Z,23.23
2018-08-16T23:11:01.488Z,22.73
2018-08-16T23:13:36.194Z,23.47
2018-08-16T23:16:10.005Z,23.40
2018-08-16T23:18:43.313Z,23.37
2018-08-16T23:21:17.331Z,21.57
2018-08-16T23:23:50.661Z,22.53
2018-08-16T23:26:24.038Z,21.30
2018-08-16T23:29:00.755Z,23.07
2018-08-16T23:31:33.984Z,22.93
2018-08-16T23:34:08.899Z,22.27
2018-08-16T23:36:43.174Z,23.00
2018-08-16T23:39:29.790Z,21.03
2018-08-16T23:42:04.279Z,21.43
2018-08-16T23:44:40.618Z,20.60
2018-08-16T23:47:16.219Z,21.03
2018-08-16T23:49:49.660Z,20.87
2018-08-16T23:52:24.055Z,20.97
2018-08-16T23:54:58.134Z,21.03
2018-08-16T23:57:31.993Z,20.37
